createdAt,value
2022-10-21T00:00:26.865Z,98741.44
2022-10-21T00:02:54.767Z,98735.22
2022-10-21T00:05:22.383Z,98712.25
2022-10-21T00:07:50.012Z,98713.13
2022-10-21T00:10:17.833Z,98716.72
2022-10-21T00:12:46.769Z,98719.16
2022-10-21T00:15:14.545Z,98721.72
2022-10-21T00:17:44.030Z,98717.84
2022-10-21T00:20:13.539Z,98731.66
2022-10-21T00:22:41.652Z,98736.50
2022-10-21T00:25:10.109Z,98737.06
2022-10-21T00:27:38.062Z,98727.72
2022-10-21T00:30:08.762Z,98728.00
2022-10-21T00:32:36.693Z,98726.41
2022-10-21T00:35:04.954Z,98731.50
2022-10-21T00:37:33.180Z,98727.72
2022-10-21T00:40:00.854Z,98734.81
2022-10-21T00:42:32.952Z,98724.78
2022-10-21T00:45:17.064Z,98715.63
2022-10-21T00:50:29.486Z,98722.97
2022-10-21T00:52:58.203Z,98721.47
2022-10-21T00:55:26.681Z,98719.00
2022-10-21T00:57:54.490Z,98711.44
2022-10-21T01:00:23.713Z,98702.75
2022-10-21T01:02:51.419Z,98694.06
2022-10-21T01:05:19.164Z,98685.25
2022-10-21T01:07:48.207Z,98673.94
2022-10-21T01:10:16.243Z,98673.06
2022-10-21T01:12:53.026Z,98661.66
2022-10-21T01:15:26.160Z,98650.97
2022-10-21T01:17:58.566Z,98640.28
2022-10-21T01:20:59.659Z,98634.63
2022-10-21T01:26:58.759Z,98621.59
2022-10-21T01:29:53.102Z,98624.22
2022-10-21T01:32:27.127Z,98641.31
2022-10-21T01:34:59.470Z,98643.13
2022-10-21T01:37:33.508Z,98635.75
2022-10-21T01:40:05.653Z,98633.75
2022-10-21T01:42:38.729Z,98618.25
2022-10-21T01:45:12.717Z,98622.88
2022-10-21T01:47:44.581Z,98627.91
2022-10-21T01:50:15.292Z,98640.09
2022-10-21T01:52:43.793Z,98629.22
2022-10-21T01:55:16.761Z,98624.22
2022-10-21T01:57:47.730Z,98629.97
2022-10-21T02:00:15.432Z,98617.81
2022-10-21T02:02:47.298Z,98626.41
2022-10-21T02:05:17.813Z,98623.38
2022-10-21T02:07:45.416Z,98630.09
2022-10-21T02:10:13.000Z,98626.69
2022-10-21T02:12:41.600Z,98625.19
2022-10-21T02:15:10.210Z,98622.06
2022-10-21T02:17:39.508Z,98627.16
2022-10-21T02:20:10.688Z,98617.72
2022-10-21T02:22:39.536Z,98610.81
2022-10-21T02:25:10.118Z,98609.78
2022-10-21T02:27:37.729Z,98605.81
2022-10-21T02:30:06.230Z,98598.63
2022-10-21T02:32:37.289Z,98591.72
2022-10-21T02:35:14.117Z,98591.91
2022-10-21T02:37:45.767Z,98588.91
2022-10-21T02:40:15.317Z,98586.06
2022-10-21T02:42:46.281Z,98579.28
2022-10-21T02:45:13.883Z,98569.72
2022-10-21T02:47:42.014Z,98579.63
2022-10-21T02:50:12.817Z,98586.72
2022-10-21T02:52:40.494Z,98589.28
2022-10-21T02:55:08.885Z,98586.72
2022-10-21T02:57:36.858Z,98588.53
2022-10-21T03:00:05.719Z,98580.69
2022-10-21T03:02:33.683Z,98578.13
2022-10-21T03:05:01.209Z,98573.97
2022-10-21T03:07:30.118Z,98569.34
2022-10-21T03:09:57.688Z,98560.47
2022-10-21T03:12:25.332Z,98550.44
2022-10-21T03:14:52.987Z,98558.28
2022-10-21T03:17:22.923Z,98554.03
2022-10-21T03:19:52.913Z,98552.13
2022-10-21T03:22:20.486Z,98550.34
2022-10-21T03:24:49.339Z,98554.59
2022-10-21T03:27:16.899Z,98552.78
2022-10-21T03:29:44.451Z,98562.34
2022-10-21T03:32:11.969Z,98565.72
2022-10-21T03:34:39.542Z,98551.66
2022-10-21T03:37:07.058Z,98551.56
2022-10-21T03:39:34.665Z,98550.63
2022-10-21T03:42:03.550Z,98540.88
2022-10-21T03:44:31.080Z,98546.81
2022-10-21T03:46:58.660Z,98539.94
2022-10-21T03:49:26.333Z,98540.59
2022-10-21T03:51:53.961Z,98537.84
2022-10-21T03:54:21.651Z,98540.28
2022-10-21T03:56:49.189Z,98534.06
2022-10-21T03:59:18.207Z,98542.53
2022-10-21T04:01:45.903Z,98542.63
2022-10-21T04:04:13.497Z,98545.09
2022-10-21T04:06:41.037Z,98547.09
2022-10-21T04:09:08.656Z,98541.03
2022-10-21T04:11:36.259Z,98548.59
2022-10-21T04:14:04.347Z,98538.44
2022-10-21T04:16:33.752Z,98545.66
2022-10-21T04:19:01.484Z,98532.59
2022-10-21T04:21:29.045Z,98532.00
2022-10-21T04:23:56.631Z,98530.41
2022-10-21T04:26:24.154Z,98528.72
2022-10-21T04:28:51.687Z,98521.72
2022-10-21T04:31:19.277Z,98524.38
2022-10-21T04:33:48.257Z,98520.03
2022-10-21T04:36:15.773Z,98519.91
2022-10-21T04:38:43.326Z,98518.97
2022-10-21T04:41:10.854Z,98518.03
2022-10-21T04:43:38.610Z,98508.38
2022-10-21T04:46:08.693Z,98508.47
2022-10-21T04:48:37.510Z,98507.53
2022-10-21T04:51:06.845Z,98501.28
2022-10-21T04:53:34.363Z,98501.41
2022-10-21T04:56:01.972Z,98507.03
2022-10-21T04:58:29.536Z,98507.53
2022-10-21T05:00:57.160Z,98511.03
2022-10-21T05:03:24.816Z,98503.94
2022-10-21T05:05:53.123Z,98503.84
2022-10-21T05:08:22.367Z,98486.66
2022-10-21T05:10:50.153Z,98492.41
2022-10-21T05:13:17.713Z,98500.25
2022-10-21T05:15:45.319Z,98499.50
2022-10-21T05:18:12.826Z,98500.13
2022-10-21T05:20:40.405Z,98500.34
2022-10-21T05:23:07.947Z,98492.50
2022-10-21T05:25:36.830Z,98488.91
2022-10-21T05:28:04.567Z,98490.50
2022-10-21T05:30:32.242Z,98493.25
2022-10-21T05:33:06.443Z,98489.66
2022-10-21T05:35:34.028Z,98490.59
2022-10-21T05:38:01.573Z,98488.69
2022-10-21T05:40:29.156Z,98479.91
2022-10-21T05:42:58.028Z,98486.25
2022-10-21T05:45:26.950Z,98479.38
2022-10-21T05:47:54.526Z,98470.47
2022-10-21T05:50:22.289Z,98470.69
2022-10-21T05:52:49.894Z,98464.44
2022-10-21T05:55:17.512Z,98475.78
2022-10-21T05:57:45.169Z,98481.81
2022-10-21T06:00:15.027Z,98475.56
2022-10-21T06:02:42.638Z,98482.00
2022-10-21T06:05:10.430Z,98463.59
2022-10-21T06:07:38.242Z,98481.25
2022-10-21T06:10:06.909Z,98470.47
2022-10-21T06:12:34.494Z,98477.66
2022-10-21T06:15:02.086Z,98466.44
2022-10-21T06:17:31.006Z,98460.38
2022-10-21T06:19:58.580Z,98454.25
2022-10-21T06:22:26.146Z,98447.81
2022-10-21T06:24:53.728Z,98457.09
2022-10-21T06:27:21.338Z,98454.25
2022-10-21T06:29:48.896Z,98461.34
2022-10-21T06:32:16.631Z,98470.22
2022-10-21T06:34:45.487Z,98476.16
2022-10-21T06:37:13.183Z,98462.19
2022-10-21T06:39:40.812Z,98464.00
2022-10-21T06:42:08.487Z,98470.88
2022-10-21T06:44:36.109Z,98470.97
2022-10-21T06:47:03.772Z,98487.31
2022-10-21T06:49:31.442Z,98492.19
2022-10-21T06:52:00.474Z,98510.84
2022-10-21T06:54:28.171Z,98513.69
2022-10-21T06:56:55.703Z,98510.72
2022-10-21T06:59:23.240Z,98523.88
2022-10-21T07:02:06.149Z,98515.19
2022-10-21T07:04:33.943Z,98531.06
2022-10-21T07:07:02.917Z,98531.91
2022-10-21T07:09:30.956Z,98523.88
2022-10-21T07:11:58.709Z,98530.47
2022-10-21T07:14:26.414Z,98540.19
2022-10-21T07:16:54.214Z,98533.09
2022-10-21T07:19:21.858Z,98539.34
2022-10-21T07:21:49.580Z,98538.34
2022-10-21T07:24:22.285Z,98536.53
2022-10-21T07:26:50.691Z,98544.94
2022-10-21T07:29:18.469Z,98542.59
2022-10-21T07:31:46.135Z,98543.69
2022-10-21T07:34:14.010Z,98542.47
2022-10-21T07:36:43.810Z,98541.72
2022-10-21T07:39:15.096Z,98540.47
2022-10-21T07:41:46.415Z,98544.81
2022-10-21T07:44:13.995Z,98526.59
2022-10-21T07:46:42.683Z,98540.72
2022-10-21T07:49:11.670Z,98552.47
2022-10-21T07:51:40.301Z,98547.28
2022-10-21T07:54:08.372Z,98549.91
2022-10-21T07:56:37.850Z,98541.88
2022-10-21T07:59:12.479Z,98540.06
2022-10-21T08:01:44.176Z,98540.19
2022-10-21T08:04:13.081Z,98546.13
2022-10-21T08:06:40.654Z,98538.06
2022-10-21T08:09:08.827Z,98534.47
2022-10-21T08:11:36.629Z,98538.28
2022-10-21T08:14:07.957Z,98533.72
2022-10-21T08:16:35.907Z,98534.56
2022-10-21T08:19:03.995Z,98538.81
2022-10-21T08:21:31.978Z,98539.38
2022-10-21T08:23:59.696Z,98540.88
2022-10-21T08:26:27.305Z,98529.31
2022-10-21T08:28:54.853Z,98531.66
2022-10-21T08:31:24.282Z,98533.56
2022-10-21T08:33:51.887Z,98543.84
2022-10-21T08:36:21.839Z,98533.03
2022-10-21T08:38:49.766Z,98539.00
2022-10-21T08:41:54.775Z,98533.38
2022-10-21T08:44:29.353Z,98538.56
2022-10-21T08:47:03.226Z,98534.88
2022-10-21T08:49:35.918Z,98538.91
2022-10-21T08:52:05.907Z,98534.56
2022-10-21T08:54:42.193Z,98545.69
2022-10-21T08:57:11.591Z,98536.69
2022-10-21T08:59:41.978Z,98545.28
2022-10-21T09:02:29.614Z,98547.50
2022-10-21T09:05:08.030Z,98553.03
2022-10-21T09:07:46.059Z,98556.09
2022-10-21T09:10:18.683Z,98556.00
2022-10-21T09:12:57.111Z,98550.59
2022-10-21T09:15:26.155Z,98550.69
2022-10-21T09:18:05.444Z,98563.72
2022-10-21T09:20:46.364Z,98560.78
2022-10-21T09:23:30.193Z,98557.69
2022-10-21T09:26:01.591Z,98558.44
2022-10-21T09:28:30.103Z,98554.53
2022-10-21T09:30:58.565Z,98563.53
2022-10-21T09:33:29.884Z,98559.63
2022-10-21T09:36:01.734Z,98568.53
2022-10-21T09:38:37.971Z,98560.34
2022-10-21T09:41:06.994Z,98566.19
2022-10-21T09:43:34.713Z,98568.00
2022-10-21T09:46:02.475Z,98569.16
2022-10-21T09:48:50.235Z,98564.59
2022-10-21T09:51:27.193Z,98573.19
2022-10-21T09:53:57.003Z,98570.22
2022-10-21T09:56:27.118Z,98577.66
2022-10-21T09:59:07.712Z,98577.97
2022-10-21T10:01:37.443Z,98578.81
2022-10-21T10:04:12.680Z,98579.78
2022-10-21T10:06:42.387Z,98578.72
2022-10-21T10:09:16.373Z,98580.41
2022-10-21T10:11:53.744Z,98577.66
2022-10-21T10:14:33.592Z,98571.50
2022-10-21T10:17:26.043Z,98576.28
2022-10-21T10:20:18.936Z,98571.94
2022-10-21T10:22:47.926Z,98579.81
2022-10-21T10:25:22.760Z,98575.97
2022-10-21T10:27:52.682Z,98570.78
2022-10-21T10:30:20.637Z,98573.09
2022-10-21T10:32:48.977Z,98568.22
2022-10-21T10:35:24.522Z,98562.19
2022-10-21T10:37:52.705Z,98555.06
2022-10-21T10:40:24.453Z,98544.56
2022-10-21T10:42:53.909Z,98545.53
2022-10-21T10:45:22.715Z,98529.78
2022-10-21T10:47:55.374Z,98532.38
2022-10-21T10:50:52.007Z,98537.75
2022-10-21T10:53:28.489Z,98539.69
2022-10-21T10:56:04.749Z,98533.81
2022-10-21T10:58:35.267Z,98526.19
2022-10-21T11:01:06.413Z,98511.31
2022-10-21T11:03:41.379Z,98522.66
2022-10-21T11:06:16.718Z,98548.13
2022-10-21T11:08:47.634Z,98550.69
2022-10-21T11:11:19.245Z,98566.47
2022-10-21T11:13:47.204Z,98575.56
2022-10-21T11:16:29.531Z,98574.63
2022-10-21T11:19:02.739Z,98564.41
2022-10-21T11:21:45.090Z,98576.50
2022-10-21T11:24:28.962Z,98568.59
2022-10-21T11:27:00.312Z,98558.75
2022-10-21T11:29:45.053Z,98567.06
2022-10-21T11:32:23.987Z,98569.97
2022-10-21T11:35:00.185Z,98569.19
2022-10-21T11:37:39.828Z,98575.66
2022-10-21T11:40:15.435Z,98580.91
2022-10-21T11:42:44.258Z,98584.41
2022-10-21T11:45:31.456Z,98584.22
2022-10-21T11:48:03.572Z,98576.31
2022-10-21T11:50:35.589Z,98567.75
2022-10-21T11:53:14.680Z,98578.28
2022-10-21T11:55:45.698Z,98585.47
2022-10-21T11:58:23.984Z,98576.38
2022-10-21T12:01:11.705Z,98571.53
2022-10-21T12:03:48.603Z,98567.91
2022-10-21T12:06:23.477Z,98573.25
2022-10-21T12:08:57.108Z,98568.38
2022-10-21T12:11:27.821Z,98571.88
2022-10-21T12:13:57.635Z,98570.47
2022-10-21T12:16:28.096Z,98569.63
2022-10-21T12:18:58.370Z,98577.47
2022-10-21T12:21:27.916Z,98579.88
2022-10-21T12:24:01.448Z,98584.53
2022-10-21T12:26:34.385Z,98591.63
2022-10-21T12:29:04.262Z,98575.63
2022-10-21T12:31:38.496Z,98583.22
2022-10-21T12:34:07.281Z,98579.59
2022-10-21T12:36:40.136Z,98593.72
2022-10-21T12:39:12.781Z,98595.09
2022-10-21T12:41:40.665Z,98592.28
2022-10-21T12:44:24.452Z,98594.41
2022-10-21T12:46:53.538Z,98583.72
2022-10-21T12:49:26.641Z,98575.81
2022-10-21T12:51:58.095Z,98575.88
2022-10-21T12:54:30.511Z,98573.38
2022-10-21T12:57:03.503Z,98569.28
2022-10-21T12:59:35.077Z,98562.91
2022-10-21T13:02:24.937Z,98560.94
2022-10-21T13:05:01.732Z,98559.25
2022-10-21T13:07:34.751Z,98570.91
2022-10-21T13:10:26.610Z,98568.63
2022-10-21T13:13:30.873Z,98568.81
2022-10-21T13:15:59.391Z,98562.31
2022-10-21T13:18:58.200Z,98567.44
2022-10-21T13:21:30.976Z,98575.94
2022-10-21T13:23:59.493Z,98574.03
2022-10-21T13:26:30.148Z,98575.47
2022-10-21T13:29:00.810Z,98575.75
2022-10-21T13:31:29.089Z,98565.00
2022-10-21T13:33:57.041Z,98559.66
2022-10-21T13:39:17.900Z,98555.28
2022-10-21T13:41:47.118Z,98545.22
2022-10-21T13:44:26.130Z,98552.44
2022-10-21T13:46:53.938Z,98545.28
2022-10-21T13:49:28.513Z,98543.63
2022-10-21T13:51:56.256Z,98555.38
2022-10-21T13:54:24.036Z,98551.38
2022-10-21T13:56:53.142Z,98551.16
2022-10-21T13:59:25.203Z,98548.25
2022-10-21T14:01:54.066Z,98547.59
2022-10-21T14:04:23.518Z,98534.66
2022-10-21T14:06:54.109Z,98541.31
2022-10-21T14:09:23.729Z,98540.41
2022-10-21T14:11:55.262Z,98534.22
2022-10-21T14:14:25.186Z,98527.50
2022-10-21T14:16:54.503Z,98532.22
2022-10-21T14:19:24.157Z,98527.59
2022-10-21T14:21:53.523Z,98528.56
2022-10-21T14:24:29.877Z,98514.19
2022-10-21T14:26:59.096Z,98515.28
2022-10-21T14:29:28.770Z,98514.06
2022-10-21T14:31:57.040Z,98516.47
2022-10-21T14:34:25.537Z,98528.94
2022-10-21T14:37:09.278Z,98537.81
2022-10-21T14:39:40.180Z,98535.66
2022-10-21T14:42:18.613Z,98539.34
2022-10-21T14:44:47.748Z,98533.16
2022-10-21T14:47:19.191Z,98536.94
2022-10-21T14:49:49.015Z,98534.78
2022-10-21T14:52:20.141Z,98531.13
2022-10-21T14:54:50.885Z,98518.78
2022-10-21T14:57:36.423Z,98504.72
2022-10-21T15:00:04.909Z,98500.25
2022-10-21T15:02:35.256Z,98501.47
2022-10-21T15:05:04.249Z,98500.28
2022-10-21T15:07:33.509Z,98505.50
2022-10-21T15:10:15.287Z,98507.69
2022-10-21T15:12:45.520Z,98513.53
2022-10-21T15:15:53.630Z,98509.81
2022-10-21T15:18:23.817Z,98513.22
2022-10-21T15:20:53.919Z,98509.34
2022-10-21T15:23:25.770Z,98511.06
2022-10-21T15:25:55.928Z,98513.47
2022-10-21T15:28:26.038Z,98513.47
2022-10-21T15:30:53.668Z,98518.72
2022-10-21T15:33:21.307Z,98519.69
2022-10-21T15:36:00.752Z,98528.97
2022-10-21T15:38:28.319Z,98536.88
2022-10-21T15:40:55.924Z,98522.81
2022-10-21T15:43:24.877Z,98525.38
2022-10-21T15:45:52.726Z,98511.06
2022-10-21T15:48:20.388Z,98522.94
2022-10-21T15:50:47.951Z,98520.50
2022-10-21T15:53:15.543Z,98528.38
2022-10-21T15:55:43.165Z,98522.44
2022-10-21T15:58:11.211Z,98509.25
2022-10-21T16:00:41.082Z,98512.53
2022-10-21T16:03:08.891Z,98509.63
2022-10-21T16:05:36.785Z,98510.34
2022-10-21T16:08:04.445Z,98514.69
2022-10-21T16:10:36.261Z,98515.78
2022-10-21T16:13:04.681Z,98526.78
2022-10-21T16:15:32.382Z,98537.63
2022-10-21T16:18:01.471Z,98529.06
2022-10-21T16:20:31.038Z,98535.69
2022-10-21T16:23:02.073Z,98544.75
2022-10-21T16:25:31.135Z,98548.25
2022-10-21T16:27:58.896Z,98547.75
2022-10-21T16:30:28.571Z,98544.84
2022-10-21T16:32:57.186Z,98537.56
2022-10-21T16:35:26.452Z,98531.41
2022-10-21T16:37:55.658Z,98537.78
2022-10-21T16:40:24.759Z,98548.31
2022-10-21T16:42:52.942Z,98550.47
2022-10-21T16:45:22.619Z,98537.78
2022-10-21T16:47:52.905Z,98547.91
2022-10-21T16:50:23.290Z,98546.53
2022-10-21T16:52:52.394Z,98554.22
2022-10-21T16:55:20.176Z,98553.00
2022-10-21T16:57:47.715Z,98555.53
2022-10-21T17:00:15.892Z,98565.44
2022-10-21T17:02:44.238Z,98566.97
2022-10-21T17:05:12.943Z,98550.91
2022-10-21T17:07:40.879Z,98553.28
2022-10-21T17:10:11.292Z,98556.91
2022-10-21T17:12:39.032Z,98560.84
2022-10-21T17:15:07.536Z,98568.09
2022-10-21T17:17:36.576Z,98564.69
2022-10-21T17:20:05.262Z,98568.53
2022-10-21T17:22:32.899Z,98567.56
2022-10-21T17:25:00.544Z,98582.44
2022-10-21T17:27:29.665Z,98572.78
2022-10-21T17:29:57.391Z,98575.97
2022-10-21T17:32:25.322Z,98576.81
2022-10-21T17:34:52.952Z,98584.06
2022-10-21T17:37:21.431Z,98584.91
2022-10-21T17:39:49.197Z,98592.25
2022-10-21T17:42:18.024Z,98586.81
2022-10-21T17:44:47.036Z,98584.06
2022-10-21T17:47:14.868Z,98574.84
2022-10-21T17:49:42.574Z,98589.03
2022-10-21T17:52:10.435Z,98584.47
2022-10-21T17:54:38.108Z,98566.94
2022-10-21T17:57:05.749Z,98591.03
2022-10-21T17:59:33.788Z,98592.84
2022-10-21T18:02:03.062Z,98601.66
2022-10-21T18:04:31.669Z,98604.09
2022-10-21T18:06:59.322Z,98595.38
2022-10-21T18:09:27.038Z,98594.19
2022-10-21T18:11:54.711Z,98597.06
2022-10-21T18:14:22.377Z,98591.66
2022-10-21T18:16:50.034Z,98595.28
2022-10-21T18:19:19.085Z,98590.59
2022-10-21T18:21:46.677Z,98597.47
2022-10-21T18:24:14.384Z,98591.22
2022-10-21T18:26:41.969Z,98564.34
2022-10-21T18:29:09.990Z,98575.25
2022-10-21T18:31:38.455Z,98566.97
2022-10-21T18:34:09.175Z,98580.25
2022-10-21T18:36:38.235Z,98579.72
2022-10-21T18:39:06.499Z,98574.97
2022-10-21T18:41:34.179Z,98581.97
2022-10-21T18:44:04.660Z,98565.88
2022-10-21T18:46:32.737Z,98581.47
2022-10-21T18:49:00.469Z,98585.53
2022-10-21T18:51:28.080Z,98577.44
2022-10-21T18:53:57.075Z,98574.91
2022-10-21T18:56:25.603Z,98573.09
2022-10-21T18:58:53.599Z,98576.50
2022-10-21T19:01:22.211Z,98579.88
2022-10-21T19:03:50.842Z,98586.06
2022-10-21T19:06:20.692Z,98582.75
2022-10-21T19:08:48.315Z,98584.47
2022-10-21T19:11:17.322Z,98588.06
2022-10-21T19:13:44.879Z,98596.66
2022-10-21T19:16:12.509Z,98601.47
2022-10-21T19:18:40.349Z,98612.59
2022-10-21T19:21:08.153Z,98614.31
2022-10-21T19:23:35.742Z,98623.75
2022-10-21T19:26:04.676Z,98621.94
2022-10-21T19:28:34.207Z,98627.38
2022-10-21T19:31:02.220Z,98622.91
2022-10-21T19:33:30.615Z,98619.84
2022-10-21T19:36:00.533Z,98617.41
2022-10-21T19:38:43.327Z,98618.03
2022-10-21T19:41:13.543Z,98624.31
2022-10-21T19:43:42.608Z,98623.44
2022-10-21T19:46:12.358Z,98626.63
2022-10-21T19:48:40.112Z,98614.19
2022-10-21T19:51:09.596Z,98614.81
2022-10-21T19:53:38.266Z,98618.44
2022-10-21T19:56:07.162Z,98612.78
2022-10-21T19:58:35.132Z,98609.09
2022-10-21T20:01:05.920Z,98624.31
2022-10-21T20:03:33.511Z,98613.78
2022-10-21T20:06:01.177Z,98615.81
2022-10-21T20:08:29.071Z,98611.78
2022-10-21T20:11:00.758Z,98613.81
2022-10-21T20:13:28.648Z,98613.59
2022-10-21T20:15:56.399Z,98614.22
2022-10-21T20:18:27.416Z,98614.56
2022-10-21T20:20:55.528Z,98614.88
2022-10-21T20:23:23.292Z,98616.06
2022-10-21T20:25:51.796Z,98625.50
2022-10-21T20:28:19.417Z,98631.88
2022-10-21T20:30:56.315Z,98641.88
2022-10-21T20:33:25.566Z,98635.81
2022-10-21T20:35:53.613Z,98642.19
2022-10-21T20:38:21.351Z,98652.69
2022-10-21T20:40:53.685Z,98663.44
2022-10-21T20:43:21.404Z,98675.13
2022-10-21T20:45:49.052Z,98666.50
2022-10-21T20:48:16.672Z,98671.63
2022-10-21T20:50:45.665Z,98674.69
2022-10-21T20:53:13.277Z,98680.44
2022-10-21T20:55:42.840Z,98666.63
2022-10-21T20:58:10.571Z,98673.53
2022-10-21T21:00:38.360Z,98670.13
2022-10-21T21:03:05.913Z,98665.03
2022-10-21T21:05:38.153Z,98647.09
2022-10-21T21:08:08.279Z,98632.22
2022-10-21T21:10:36.077Z,98622.69
2022-10-21T21:13:03.867Z,98629.03
2022-10-21T21:15:31.614Z,98622.88
2022-10-21T21:18:02.110Z,98607.91
2022-10-21T21:20:29.746Z,98616.94
2022-10-21T21:22:57.757Z,98612.34
2022-10-21T21:25:26.728Z,98621.25
2022-10-21T21:27:54.269Z,98631.56
2022-10-21T21:30:21.867Z,98637.19
2022-10-21T21:32:49.601Z,98631.56
2022-10-21T21:35:17.380Z,98601.94
2022-10-21T21:37:44.996Z,98607.78
2022-10-21T21:40:12.932Z,98615.94
2022-10-21T21:42:42.205Z,98623.91
2022-10-21T21:45:11.195Z,98644.06
2022-10-21T21:47:38.745Z,98645.41
2022-10-21T21:50:07.156Z,98647.31
2022-10-21T21:52:34.681Z,98659.63
2022-10-21T21:55:02.239Z,98658.56
2022-10-21T21:57:29.900Z,98657.94
2022-10-21T21:59:58.825Z,98664.28
2022-10-21T22:02:26.413Z,98671.09
2022-10-21T22:04:53.976Z,98664.09
2022-10-21T22:07:21.901Z,98663.97
2022-10-21T22:09:49.500Z,98664.72
2022-10-21T22:12:18.787Z,98649.78
2022-10-21T22:14:48.578Z,98660.06
2022-10-21T22:17:17.541Z,98660.91
2022-10-21T22:19:45.170Z,98659.00
2022-10-21T22:22:12.708Z,98651.91
2022-10-21T22:24:40.424Z,98662.31
2022-10-21T22:27:07.959Z,98656.91
2022-10-21T22:29:36.168Z,98650.66
2022-10-21T22:32:03.841Z,98631.03
2022-10-21T22:34:32.809Z,98625.72
2022-10-21T22:37:02.055Z,98626.88
2022-10-21T22:39:29.994Z,98624.53
2022-10-21T22:41:57.661Z,98610.94
2022-10-21T22:44:25.377Z,98618.28
2022-10-21T22:46:53.028Z,98623.38
2022-10-21T22:49:20.615Z,98609.78
2022-10-21T22:51:52.656Z,98615.72
2022-10-21T22:54:46.489Z,98621.78
2022-10-21T22:57:08.159Z,98619.97
2022-10-21T22:59:37.531Z,98634.09
2022-10-21T23:02:05.191Z,98626.97
2022-10-21T23:04:35.883Z,98628.25
2022-10-21T23:07:05.064Z,98629.31
2022-10-21T23:09:32.728Z,98623.47
2022-10-21T23:12:00.361Z,98603.31
2022-10-21T23:14:28.145Z,98608.31
2022-10-21T23:16:56.047Z,98623.78
2022-10-21T23:19:24.038Z,98630.91
2022-10-21T23:21:51.597Z,98637.25
2022-10-21T23:24:20.543Z,98642.66
2022-10-21T23:26:48.504Z,98639.28
2022-10-21T23:29:16.123Z,98656.69
2022-10-21T23:31:43.826Z,98669.09
2022-10-21T23:34:11.469Z,98673.84
2022-10-21T23:36:39.222Z,98674.03
2022-10-21T23:39:07.237Z,98678.41
2022-10-21T23:41:36.247Z,98689.84
2022-10-21T23:44:04.065Z,98694.13
2022-10-21T23:46:31.949Z,98693.69
2022-10-21T23:48:59.739Z,98696.16
2022-10-21T23:51:27.573Z,98682.13
2022-10-21T23:53:55.614Z,98680.03
2022-10-21T23:56:23.383Z,98668.56
2022-10-21T23:58:52.408Z,98676.31
